FWCL

Details ICAO FWCL (BLZ)
Name CHILEKA INTL
Region Malawi
Timezone Africa/Blantyre (UTC+2.0)
Plans Departing 22
Arriving 32
Stats Elevation 2,555 ft / 779 m (AMSL)
Location -15.677247° 34.970452°
Runways 2
Magnetic Variation 7.350° W
Sunrise 2018-05-27 04:00:03 UTC / 2018-05-27 06:00:03 Local
Sunset 2018-05-27 15:17:21 UTC / 2018-05-27 17:17:21 Local
Advertisement - Login to hide

Runways

ID Width Length Bearing (true) Bearing (mag) Surface Threshold Offset Overrun Length
10 98 ft / 30 m 7,610 ft / 2,320 m 96.92° 104.27° Asphalt 0 ft / 0 m 0 ft / 0 m
15 98 ft / 30 m 4,509 ft / 1,374 m 141.00° 148.35° Asphalt 0 ft / 0 m 0 ft / 0 m
28 98 ft / 30 m 7,610 ft / 2,320 m 276.91° 284.26° Asphalt 0 ft / 0 m 400 ft / 122 m
33 98 ft / 30 m 4,509 ft / 1,374 m 321.00° 328.35° Asphalt 0 ft / 0 m 0 ft / 0 m

Map

Weather


0- 5 10 15 20 25 30 35+ Temperature / ° C

Clouds and Precipitation
Forecast for 2018-05-27 06:00 UTC. Updated 3 hours ago

Ground ~20,000 ft ~40,000 ft Winds

METAR

FWCL 270800Z 00000KT 9999 BKN025 25/17 Q1025 NOSIG

TAF

TAF TAF FWCL 270430Z 2706/2812 05006KT 9999 FEW015 BECMG 2711/2713 FEW020 SCT080 FM271700 16004KT CAVOK BECMG 2807/2809 09007KT FEW010

Frequencies

Tower 118.10 MHz TWR
Approach 124.90 MHz APP
Warning: Do not use this data for real-world aviation or navigation. No guarantee of current accuracy is given.